CPA548 VHHH-RJTT
Flight info
| Callsign | CPA548 |
|---|---|
| Flight time | N/A |
| Altitude | 39000 |
| Route | DALOL V631 ENVAR M750 BILLY Y21 AKSEL |
| Aircraft | A359/H-SDE2E3GHIJ3J4J5LM1ORWXY/LB1D1 |
Departure
| Time | 2026-05-06 10:21 |
|---|---|
| Airport | Hong Kong International Airport (VHHH) |
Arrival
| Time | N/A |
|---|---|
| Airport | Tokyo Haneda International Airport (RJTT) |
| Time | Latitude | Longitude | Altitude | Speed | Heading |
|---|---|---|---|---|---|
| 2026-05-06 09:46 | 22.31361 | 113.92469 | 35 ft | 0 kts | 26° |
| 2026-05-06 10:09 | 22.31344 | 113.92459 | 35 ft | 4 kts | 34° |
| 2026-05-06 10:09 | 22.31322 | 113.92443 | 35 ft | 4 kts | 25° |
| 2026-05-06 10:10 | 22.31301 | 113.92434 | 34 ft | 4 kts | 5° |
| 2026-05-06 10:10 | 22.31278 | 113.92439 | 36 ft | 4 kts | 311° |
| 2026-05-06 10:10 | 22.31265 | 113.92463 | 37 ft | 2 kts | 296° |
| 2026-05-06 10:10 | 22.31264 | 113.92466 | 37 ft | 4 kts | 296° |
| 2026-05-06 10:13 | 22.31269 | 113.92454 | 37 ft | 6 kts | 296° |
| 2026-05-06 10:14 | 22.31301 | 113.92383 | 37 ft | 14 kts | 296° |
| 2026-05-06 10:14 | 22.31349 | 113.92278 | 37 ft | 16 kts | 296° |
| 2026-05-06 10:14 | 22.31402 | 113.92162 | 37 ft | 18 kts | 296° |
| 2026-05-06 10:14 | 22.31493 | 113.92072 | 37 ft | 19 kts | 340° |
| 2026-05-06 10:15 | 22.31599 | 113.92005 | 37 ft | 17 kts | 290° |
| 2026-05-06 10:15 | 22.31579 | 113.91875 | 36 ft | 19 kts | 252° |
| 2026-05-06 10:15 | 22.31533 | 113.91732 | 36 ft | 22 kts | 251° |
| 2026-05-06 10:15 | 22.31480 | 113.91570 | 37 ft | 24 kts | 250° |
| 2026-05-06 10:16 | 22.31423 | 113.91394 | 37 ft | 26 kts | 251° |
| 2026-05-06 10:16 | 22.31361 | 113.91202 | 38 ft | 28 kts | 251° |
| 2026-05-06 10:16 | 22.31296 | 113.91001 | 37 ft | 30 kts | 251° |
| 2026-05-06 10:16 | 22.31227 | 113.90786 | 37 ft | 31 kts | 251° |
| 2026-05-06 10:17 | 22.31162 | 113.90584 | 36 ft | 26 kts | 251° |
| 2026-05-06 10:17 | 22.31103 | 113.90399 | 36 ft | 27 kts | 251° |
| 2026-05-06 10:17 | 22.31045 | 113.90214 | 36 ft | 26 kts | 252° |
| 2026-05-06 10:17 | 22.30988 | 113.90029 | 36 ft | 26 kts | 251° |
| 2026-05-06 10:18 | 22.30946 | 113.89903 | 36 ft | 17 kts | 250° |
| 2026-05-06 10:18 | 22.30942 | 113.89802 | 36 ft | 9 kts | 310° |
| 2026-05-06 10:18 | 22.30953 | 113.89794 | 36 ft | 0 kts | 328° |
| 2026-05-06 10:20 | 22.30956 | 113.89793 | 36 ft | 1 kts | 328° |
| 2026-05-06 10:20 | 22.31004 | 113.89767 | 36 ft | 17 kts | 334° |
| 2026-05-06 10:20 | 22.31097 | 113.89808 | 36 ft | 17 kts | 71° |
| 2026-05-06 10:20 | 22.31145 | 113.89959 | 36 ft | 33 kts | 70° |
| 2026-05-06 10:21 | 22.31291 | 113.90416 | 34 ft | 96 kts | 71° |
| 2026-05-06 10:21 | 22.31575 | 113.91284 | 38 ft | 148 kts | 71° |
| 2026-05-06 10:21 | 22.31959 | 113.92380 | 608 ft | 145 kts | 70° |
| 2026-05-06 10:21 | 22.32323 | 113.93404 | 1216 ft | 151 kts | 73° |
| 2026-05-06 10:22 | 22.32671 | 113.94544 | 1595 ft | 170 kts | 77° |
| 2026-05-06 10:22 | 22.33006 | 113.95838 | 1955 ft | 189 kts | 78° |
| 2026-05-06 10:22 | 22.33327 | 113.97323 | 2108 ft | 218 kts | 79° |
| 2026-05-06 10:22 | 22.33632 | 113.99036 | 2367 ft | 242 kts | 82° |
| 2026-05-06 10:23 | 22.33915 | 114.00800 | 3243 ft | 234 kts | 81° |
| 2026-05-06 10:23 | 22.34220 | 114.02519 | 3981 ft | 234 kts | 82° |
| 2026-05-06 10:23 | 22.34283 | 114.04280 | 4585 ft | 236 kts | 99° |
| 2026-05-06 10:23 | 22.33783 | 114.05955 | 5205 ft | 236 kts | 122° |
| 2026-05-06 10:24 | 22.32750 | 114.07309 | 5806 ft | 235 kts | 142° |
| 2026-05-06 10:24 | 22.31339 | 114.08267 | 6190 ft | 247 kts | 160° |
| 2026-05-06 10:24 | 22.29665 | 114.08737 | 6708 ft | 251 kts | 177° |
| 2026-05-06 10:24 | 22.27907 | 114.08788 | 7251 ft | 258 kts | 183° |
| 2026-05-06 10:25 | 22.26067 | 114.08747 | 7698 ft | 271 kts | 184° |
| 2026-05-06 10:25 | 22.24149 | 114.08706 | 8270 ft | 278 kts | 184° |
| 2026-05-06 10:25 | 22.22197 | 114.08675 | 8981 ft | 282 kts | 184° |
| 2026-05-06 10:25 | 22.20221 | 114.08651 | 9708 ft | 285 kts | 184° |
| 2026-05-06 10:26 | 22.18215 | 114.08721 | 10244 ft | 297 kts | 175° |
| 2026-05-06 10:26 | 22.16217 | 114.09520 | 10505 ft | 321 kts | 148° |
| 2026-05-06 10:26 | 22.14665 | 114.11337 | 10778 ft | 342 kts | 122° |
| 2026-05-06 10:26 | 22.13532 | 114.13665 | 11051 ft | 358 kts | 117° |
| 2026-05-06 10:27 | 22.12427 | 114.16113 | 11451 ft | 367 kts | 117° |
| 2026-05-06 10:27 | 22.11287 | 114.18597 | 11942 ft | 373 kts | 117° |
| 2026-05-06 10:27 | 22.10112 | 114.21115 | 12456 ft | 378 kts | 118° |
| 2026-05-06 10:27 | 22.08915 | 114.23656 | 12974 ft | 382 kts | 118° |
| 2026-05-06 10:28 | 22.07485 | 114.26075 | 13502 ft | 384 kts | 132° |
| 2026-05-06 10:28 | 22.05499 | 114.28001 | 13996 ft | 385 kts | 144° |
| 2026-05-06 10:28 | 22.03333 | 114.29718 | 14493 ft | 387 kts | 146° |
| 2026-05-06 10:28 | 22.01171 | 114.31400 | 14992 ft | 389 kts | 146° |
| 2026-05-06 10:29 | 21.98950 | 114.33134 | 15490 ft | 392 kts | 146° |
| 2026-05-06 10:29 | 21.96741 | 114.34866 | 15981 ft | 393 kts | 146° |
| 2026-05-06 10:29 | 21.94556 | 114.36587 | 16473 ft | 395 kts | 146° |
| 2026-05-06 10:29 | 21.92334 | 114.38336 | 16944 ft | 397 kts | 146° |
| 2026-05-06 10:30 | 21.90091 | 114.40098 | 17428 ft | 399 kts | 146° |
| 2026-05-06 10:30 | 21.87846 | 114.41875 | 17901 ft | 402 kts | 144° |
| 2026-05-06 10:30 | 21.85799 | 114.43934 | 18339 ft | 407 kts | 131° |
| 2026-05-06 10:30 | 21.84303 | 114.46535 | 18695 ft | 414 kts | 114° |
| 2026-05-06 10:31 | 21.83385 | 114.49485 | 19060 ft | 418 kts | 107° |
| 2026-05-06 10:31 | 21.82616 | 114.52517 | 19447 ft | 421 kts | 106° |
| 2026-05-06 10:31 | 21.81851 | 114.55568 | 19834 ft | 424 kts | 106° |
| 2026-05-06 10:31 | 21.81073 | 114.58633 | 20226 ft | 427 kts | 106° |
| 2026-05-06 10:32 | 21.80281 | 114.61724 | 20618 ft | 430 kts | 107° |
| 2026-05-06 10:32 | 21.79480 | 114.64836 | 20996 ft | 433 kts | 107° |
| 2026-05-06 10:32 | 21.78670 | 114.67973 | 21378 ft | 437 kts | 107° |
| 2026-05-06 10:32 | 21.77853 | 114.71129 | 21767 ft | 440 kts | 107° |
| 2026-05-06 10:33 | 21.77027 | 114.74312 | 22172 ft | 443 kts | 107° |
| 2026-05-06 10:33 | 21.76196 | 114.77516 | 22563 ft | 446 kts | 107° |
| 2026-05-06 10:33 | 21.75360 | 114.80733 | 22963 ft | 449 kts | 107° |
| 2026-05-06 10:33 | 21.74614 | 114.84012 | 23325 ft | 453 kts | 100° |
| 2026-05-06 10:34 | 21.74300 | 114.87393 | 23679 ft | 456 kts | 93° |
| 2026-05-06 10:34 | 21.74206 | 114.90815 | 24014 ft | 459 kts | 90° |
| 2026-05-06 10:34 | 21.74212 | 114.94260 | 24365 ft | 461 kts | 89° |
| 2026-05-06 10:34 | 21.74239 | 114.96545 | 24603 ft | 463 kts | 89° |
| 2026-05-06 10:35 | 21.74301 | 115.01184 | 25137 ft | 465 kts | 89° |
| 2026-05-06 10:35 | 21.74325 | 115.03499 | 25427 ft | 466 kts | 89° |
| 2026-05-06 10:35 | 21.74348 | 115.06991 | 25823 ft | 469 kts | 90° |
| 2026-05-06 10:35 | 21.74359 | 115.10508 | 26197 ft | 472 kts | 90° |
| 2026-05-06 10:36 | 21.74360 | 115.11696 | 26338 ft | 473 kts | 90° |
| 2026-05-06 10:36 | 21.74360 | 115.13022 | 26482 ft | 474 kts | 90° |
| 2026-05-06 10:37 | 21.74357 | 115.16570 | 26864 ft | 477 kts | 90° |
| 2026-05-06 10:37 | 21.74351 | 115.20149 | 27260 ft | 480 kts | 90° |
| 2026-05-06 10:37 | 21.74346 | 115.23742 | 27640 ft | 482 kts | 90° |
| 2026-05-06 10:37 | 21.74339 | 115.27365 | 28034 ft | 485 kts | 90° |
| 2026-05-06 10:38 | 21.74331 | 115.31000 | 28413 ft | 488 kts | 90° |
| 2026-05-06 10:38 | 21.74320 | 115.34658 | 28768 ft | 491 kts | 90° |
| 2026-05-06 10:38 | 21.74310 | 115.38346 | 29111 ft | 494 kts | 90° |
| 2026-05-06 10:38 | 21.74299 | 115.42054 | 29469 ft | 497 kts | 90° |
| 2026-05-06 10:39 | 21.74288 | 115.45769 | 29816 ft | 500 kts | 90° |
| 2026-05-06 10:39 | 21.74276 | 115.49528 | 30134 ft | 503 kts | 90° |
| 2026-05-06 10:39 | 21.74263 | 115.53297 | 30433 ft | 505 kts | 90° |
| 2026-05-06 10:39 | 21.74250 | 115.57020 | 30732 ft | 507 kts | 90° |
| 2026-05-06 10:40 | 21.74238 | 115.60822 | 31029 ft | 509 kts | 90° |
| 2026-05-06 10:40 | 21.74226 | 115.64637 | 31328 ft | 511 kts | 90° |
| 2026-05-06 10:40 | 21.74211 | 115.68465 | 31595 ft | 513 kts | 90° |
| 2026-05-06 10:40 | 21.74194 | 115.72309 | 31869 ft | 515 kts | 90° |
| 2026-05-06 10:41 | 21.74177 | 115.76177 | 32154 ft | 517 kts | 90° |
| 2026-05-06 10:41 | 21.74158 | 115.80046 | 32423 ft | 519 kts | 90° |
| 2026-05-06 10:41 | 21.74139 | 115.83935 | 32685 ft | 521 kts | 90° |
| 2026-05-06 10:41 | 21.74120 | 115.87834 | 32927 ft | 522 kts | 89° |
| 2026-05-06 10:42 | 21.74099 | 115.91752 | 33176 ft | 524 kts | 89° |
| 2026-05-06 10:42 | 21.74077 | 115.95684 | 33413 ft | 526 kts | 89° |
| 2026-05-06 10:42 | 21.74055 | 115.99621 | 33661 ft | 527 kts | 89° |
| 2026-05-06 10:42 | 21.74031 | 116.03570 | 33879 ft | 529 kts | 89° |
| 2026-05-06 10:43 | 21.74007 | 116.07518 | 34153 ft | 528 kts | 89° |
| 2026-05-06 10:43 | 21.73981 | 116.11473 | 34427 ft | 528 kts | 89° |
| 2026-05-06 10:43 | 21.73955 | 116.15414 | 34678 ft | 527 kts | 89° |
| 2026-05-06 10:44 | 21.73899 | 116.23293 | 35185 ft | 526 kts | 89° |
| 2026-05-06 10:44 | 21.73870 | 116.27230 | 35425 ft | 526 kts | 89° |